LYNI/INI METAR and TAF weather

Enter ICAO airport designator
Station Type Date Time Source
LYNI METAR 2019/06/18 13:30 UTC NOAA

LYNI 181330Z 00000KT 9999 -TSRA SCT025CB SCT030 23/17 Q1015 RESHRA TEMPO VRB18KT 5000 TSRA


Station Type Date Time Source
LYNI Decoded METAR 2019/06/18 13:30 UTC NOAA

Nis, Serbia and Montenegro (LYNI) 43-20N 021-54E 202M
Jun 18, 2019 - 09:30 AM EDT / 2019.06.18 1330 UTC
Wind: Calm:0
Visibility: greater than 7 mile(s):0
Sky conditions: partly cloudy
Weather: light rain with thunder; Cumulonimbus clouds observed
Temperature: 73 F (23 C)
Dew Point: 62 F (17 C)
Relative Humidity: 68%
Pressure (altimeter): 29.97 in. Hg (1015 hPa)
ob: LYNI 181330Z 00000KT 9999 -TSRA SCT025CB SCT030 23/17 Q1015 RESHRA TEMPO VRB18KT 5000 TSRA
cycle: 13

Station Type Date Time Source
LYNI TAF 2019/06/18 12:21 UTC NOAA

TAF TAF LYNI 181100Z 1812/1912 33006KT 9999 SCT040 TX30/1813Z TN17/1903Z
TEMPO 1812/1818 35018KT 4000 TSRA SCT028CB BKN033
TEMPO 1903/1906 3000 BR

Example: see airport list